Terminal Aerodrome Forecast
Issued by NWS Knoxville/Tri Cities, TN

Home | Current Version | Previous Version | Text Only | Print | Product List | Glossary On
Versions: 1 2 3 4 5 6 7 8 9 10 11 12 13 14 15 16 17 18 19 20 21 22
000
FTUS44 KMRX 222320
TAFTRI
TAF
KTRI 222320Z 2300/2324 06004KT P6SM VCSH OVC050
     FM230300 30008KT 4SM -RA BR OVC015
     FM230600 35010KT 2SM -RA BR OVC007
     FM231200 30004KT 4SM -RA BR OVC007=

USA.gov is the U.S. government's official web portal to all federal, state and local government web resources and services.